createdAt,value
2018-12-16T00:01:35.739Z,89.75
2018-12-16T00:04:01.877Z,89.58
2018-12-16T00:06:28.028Z,88.33
2018-12-16T00:08:54.146Z,88.49
2018-12-16T00:11:20.317Z,89.80
2018-12-16T00:13:46.478Z,89.53
2018-12-16T00:16:12.624Z,89.88
2018-12-16T00:18:38.751Z,89.04
2018-12-16T00:21:04.930Z,88.38
2018-12-16T00:23:31.087Z,89.41
2018-12-16T00:25:57.232Z,88.97
2018-12-16T00:28:23.519Z,89.92
2018-12-16T00:30:49.657Z,90.37
2018-12-16T00:33:15.917Z,89.58
2018-12-16T00:35:42.063Z,90.03
2018-12-16T00:38:08.180Z,89.79
2018-12-16T00:40:34.328Z,89.10
2018-12-16T00:43:00.455Z,89.43
2018-12-16T00:45:26.619Z,88.57
2018-12-16T00:47:52.759Z,88.78
2018-12-16T00:50:18.922Z,90.08
2018-12-16T00:52:45.067Z,89.45
2018-12-16T00:55:11.191Z,89.86
2018-12-16T00:57:37.326Z,90.24
2018-12-16T01:00:05.918Z,89.43
2018-12-16T01:02:42.867Z,89.16
2018-12-16T01:05:09.653Z,89.33
2018-12-16T01:07:35.821Z,89.82
2018-12-16T01:10:03.227Z,89.28
2018-12-16T01:12:29.387Z,89.27
2018-12-16T01:14:55.532Z,89.55
2018-12-16T01:17:21.719Z,89.88
2018-12-16T01:19:48.106Z,89.59
2018-12-16T01:22:14.381Z,90.09
2018-12-16T01:24:40.513Z,90.01
2018-12-16T01:27:06.644Z,89.85
2018-12-16T01:29:32.784Z,89.76
2018-12-16T01:31:58.947Z,89.68
2018-12-16T01:34:25.095Z,89.18
2018-12-16T01:36:51.240Z,90.24
2018-12-16T01:39:17.403Z,90.77
2018-12-16T01:41:44.243Z,90.41
2018-12-16T01:44:10.391Z,90.64
2018-12-16T01:46:36.566Z,90.23
2018-12-16T01:49:02.755Z,89.13
2018-12-16T01:51:28.891Z,90.22
2018-12-16T01:53:55.728Z,90.73
2018-12-16T01:56:21.877Z,90.57
2018-12-16T01:58:48.011Z,90.36
2018-12-16T02:01:14.135Z,89.37
2018-12-16T02:03:40.273Z,90.18
2018-12-16T02:06:06.481Z,90.08
2018-12-16T02:08:32.921Z,90.33
2018-12-16T02:10:59.067Z,90.54
2018-12-16T02:13:25.240Z,90.83
2018-12-16T02:15:51.399Z,90.35
2018-12-16T02:18:17.564Z,91.13
2018-12-16T02:20:43.709Z,90.75
2018-12-16T02:23:09.864Z,90.38
2018-12-16T02:25:36.000Z,90.59
2018-12-16T02:28:02.142Z,90.89
2018-12-16T02:30:28.438Z,90.43
2018-12-16T02:32:54.752Z,91.67
2018-12-16T02:35:20.888Z,90.34
2018-12-16T02:37:47.015Z,90.26
2018-12-16T02:40:13.854Z,91.43
2018-12-16T02:42:40.006Z,91.33
2018-12-16T02:45:06.164Z,90.79
2018-12-16T02:47:32.304Z,91.40
2018-12-16T02:49:58.456Z,91.47
2018-12-16T02:52:24.571Z,90.37
2018-12-16T02:54:50.700Z,90.46
2018-12-16T02:57:16.872Z,90.98
2018-12-16T02:59:43.018Z,91.28
2018-12-16T03:02:09.159Z,90.52
2018-12-16T03:04:35.314Z,91.37
2018-12-16T03:07:01.470Z,91.11
2018-12-16T03:09:27.618Z,91.14
2018-12-16T03:11:53.740Z,91.03
2018-12-16T03:14:19.896Z,90.96
2018-12-16T03:16:46.018Z,90.31
2018-12-16T03:19:12.147Z,90.19
2018-12-16T03:21:38.787Z,90.98
2018-12-16T03:24:04.911Z,90.12
2018-12-16T03:26:35.828Z,90.05
2018-12-16T03:28:59.207Z,90.33
2018-12-16T03:31:25.382Z,91.15
2018-12-16T03:33:51.633Z,90.95
2018-12-16T03:36:17.783Z,91.47
2018-12-16T03:38:44.196Z,91.21
2018-12-16T03:41:10.361Z,91.06
2018-12-16T03:43:36.485Z,91.83
2018-12-16T03:46:02.771Z,91.42
2018-12-16T03:48:28.905Z,91.48
2018-12-16T03:50:55.071Z,91.33
2018-12-16T03:53:21.201Z,91.11
2018-12-16T03:55:47.343Z,91.20
2018-12-16T03:58:13.592Z,91.11
2018-12-16T04:00:39.728Z,91.81
2018-12-16T04:03:05.867Z,91.71
2018-12-16T04:05:32.016Z,91.48
2018-12-16T04:07:58.132Z,90.83
2018-12-16T04:10:24.411Z,90.86
2018-12-16T04:12:50.587Z,91.82
2018-12-16T04:15:16.893Z,91.92
2018-12-16T04:17:43.047Z,91.37
2018-12-16T04:20:09.227Z,91.28
2018-12-16T04:22:35.347Z,91.52
2018-12-16T04:25:01.505Z,92.23
2018-12-16T04:27:27.656Z,91.58
2018-12-16T04:29:53.807Z,90.79
2018-12-16T04:32:19.938Z,91.22
2018-12-16T04:34:46.065Z,91.24
2018-12-16T04:37:12.222Z,91.59
2018-12-16T04:39:38.494Z,92.25
2018-12-16T04:42:04.647Z,91.77
2018-12-16T04:44:30.794Z,91.63
2018-12-16T04:46:57.826Z,91.29
2018-12-16T04:49:23.991Z,92.07
2018-12-16T04:51:50.129Z,92.12
2018-12-16T04:54:16.255Z,91.70
2018-12-16T04:56:42.397Z,92.63
2018-12-16T04:59:08.521Z,91.78
2018-12-16T05:01:34.661Z,92.00
2018-12-16T05:04:00.808Z,92.37
2018-12-16T05:06:26.947Z,91.71
2018-12-16T05:08:53.090Z,92.14
2018-12-16T05:11:19.217Z,92.44
2018-12-16T05:13:45.354Z,92.71
2018-12-16T05:16:11.495Z,92.20
2018-12-16T05:18:37.638Z,92.45
2018-12-16T05:21:03.827Z,91.49
2018-12-16T05:23:30.003Z,91.68
2018-12-16T05:25:56.135Z,91.85
2018-12-16T05:28:22.284Z,91.65
2018-12-16T05:30:49.205Z,91.88
2018-12-16T05:33:15.339Z,92.06
2018-12-16T05:35:42.030Z,92.49
2018-12-16T05:38:08.199Z,92.10
2018-12-16T05:40:34.324Z,92.48
2018-12-16T05:43:00.532Z,92.13
2018-12-16T05:45:26.659Z,92.46
2018-12-16T05:47:52.808Z,92.00
2018-12-16T05:50:19.096Z,92.71
2018-12-16T05:52:45.244Z,92.57
2018-12-16T05:55:11.375Z,92.18
2018-12-16T05:57:37.525Z,92.21
2018-12-16T06:00:04.459Z,92.73
2018-12-16T06:02:30.623Z,92.41
2018-12-16T06:04:56.776Z,92.12
2018-12-16T06:07:22.958Z,92.57
2018-12-16T06:09:49.107Z,92.23
2018-12-16T06:12:15.252Z,92.56
2018-12-16T06:14:41.420Z,92.57
2018-12-16T06:17:07.672Z,92.26
2018-12-16T06:19:33.835Z,92.79
2018-12-16T06:21:59.956Z,92.97
2018-12-16T06:24:26.971Z,93.10
2018-12-16T06:26:53.101Z,93.59
2018-12-16T06:29:19.281Z,92.63
2018-12-16T06:31:45.433Z,93.11
2018-12-16T06:34:11.582Z,92.84
2018-12-16T06:36:37.720Z,92.15
2018-12-16T06:39:05.301Z,92.86
2018-12-16T06:41:31.431Z,93.02
2018-12-16T06:43:57.575Z,92.73
2018-12-16T06:46:23.722Z,93.73
2018-12-16T06:48:49.887Z,92.75
2018-12-16T06:51:15.999Z,92.76
2018-12-16T06:53:42.143Z,92.59
2018-12-16T06:56:08.278Z,93.41
2018-12-16T06:58:34.387Z,93.16
2018-12-16T07:01:00.519Z,93.34
2018-12-16T07:03:26.634Z,93.19
2018-12-16T07:05:52.812Z,93.68
2018-12-16T07:08:18.983Z,93.90
2018-12-16T07:10:45.154Z,93.37
2018-12-16T07:13:11.325Z,93.92
2018-12-16T07:15:37.544Z,93.35
2018-12-16T07:18:03.680Z,94.32
2018-12-16T07:20:29.830Z,95.83
2018-12-16T07:22:55.968Z,97.06
2018-12-16T07:25:22.251Z,97.48
2018-12-16T07:27:48.365Z,97.10
2018-12-16T07:30:14.534Z,97.42
2018-12-16T07:32:40.655Z,97.67
2018-12-16T07:35:06.866Z,98.29
2018-12-16T07:37:33.099Z,98.16
2018-12-16T07:39:59.252Z,98.14
2018-12-16T07:42:25.419Z,97.77
2018-12-16T07:44:51.546Z,98.19
2018-12-16T07:47:17.692Z,98.11
2018-12-16T07:49:43.834Z,98.53
2018-12-16T07:52:10.005Z,97.97
2018-12-16T07:54:36.234Z,97.86
2018-12-16T07:57:02.404Z,97.84
2018-12-16T07:59:28.547Z,97.97
2018-12-16T08:01:54.681Z,97.98
2018-12-16T08:04:20.825Z,98.15
2018-12-16T08:06:47.000Z,98.33
2018-12-16T08:09:13.129Z,98.62
2018-12-16T08:11:39.255Z,99.34
2018-12-16T08:14:05.379Z,99.68
2018-12-16T08:16:31.511Z,99.56
2018-12-16T08:18:57.655Z,99.78
2018-12-16T08:21:23.791Z,99.58
2018-12-16T08:23:49.901Z,99.67
2018-12-16T08:26:16.049Z,99.42
2018-12-16T08:28:42.167Z,99.19
2018-12-16T08:31:08.332Z,99.05
2018-12-16T08:33:34.464Z,99.16
2018-12-16T08:36:00.724Z,98.90
2018-12-16T08:38:26.862Z,98.75
2018-12-16T08:40:52.983Z,98.63
2018-12-16T08:43:19.152Z,98.50
2018-12-16T08:45:45.305Z,97.99
2018-12-16T08:48:11.476Z,98.06
2018-12-16T08:50:37.602Z,97.91
2018-12-16T08:53:03.771Z,97.65
2018-12-16T08:55:29.905Z,97.01
2018-12-16T08:57:56.045Z,97.29
2018-12-16T09:00:22.187Z,96.80
2018-12-16T09:02:48.338Z,97.43
2018-12-16T09:05:14.476Z,97.33
2018-12-16T09:07:40.636Z,96.90
2018-12-16T09:10:08.524Z,96.98
2018-12-16T09:12:34.690Z,96.85
2018-12-16T09:15:00.836Z,96.48
2018-12-16T09:17:26.972Z,96.16
2018-12-16T09:19:53.104Z,96.37
2018-12-16T09:22:19.234Z,96.53
2018-12-16T09:24:45.505Z,96.36
2018-12-16T09:27:11.624Z,96.31
2018-12-16T09:29:37.808Z,96.06
2018-12-16T09:32:03.959Z,96.85
2018-12-16T09:34:30.131Z,96.62
2018-12-16T09:36:56.262Z,96.49
2018-12-16T09:39:22.419Z,96.29
2018-12-16T09:41:48.547Z,96.38
2018-12-16T09:44:14.679Z,95.87
2018-12-16T09:46:40.799Z,96.39
2018-12-16T09:49:06.922Z,95.86
2018-12-16T09:51:33.036Z,96.41
2018-12-16T09:53:59.177Z,95.82
2018-12-16T09:56:25.314Z,96.07
2018-12-16T09:58:51.436Z,96.25
2018-12-16T10:01:17.598Z,96.21
2018-12-16T10:03:43.732Z,95.99
2018-12-16T10:06:09.851Z,95.83
2018-12-16T10:08:35.998Z,95.75
2018-12-16T10:11:02.172Z,95.96
2018-12-16T10:13:28.292Z,96.09
2018-12-16T10:15:54.424Z,95.52
2018-12-16T10:18:20.568Z,95.48
2018-12-16T10:20:46.716Z,95.42
2018-12-16T10:23:12.863Z,95.38
2018-12-16T10:25:39.031Z,95.69
2018-12-16T10:28:05.179Z,95.95
2018-12-16T10:30:31.331Z,95.77
2018-12-16T10:32:57.481Z,95.23
2018-12-16T10:35:23.638Z,95.49
2018-12-16T10:37:49.903Z,95.32
2018-12-16T10:40:16.050Z,95.18
2018-12-16T10:42:42.177Z,94.96
2018-12-16T10:45:08.354Z,94.33
2018-12-16T10:47:34.499Z,94.17
2018-12-16T10:50:00.620Z,93.82
2018-12-16T10:52:26.743Z,94.42
2018-12-16T10:54:58.456Z,94.02
2018-12-16T10:57:21.000Z,93.80
2018-12-16T10:59:47.161Z,93.82
2018-12-16T11:02:13.314Z,94.14
2018-12-16T11:04:40.354Z,94.33
2018-12-16T11:07:06.494Z,94.16
2018-12-16T11:09:32.633Z,94.40
2018-12-16T11:11:58.755Z,94.50
2018-12-16T11:14:24.874Z,94.37
2018-12-16T11:16:51.003Z,94.26
2018-12-16T11:19:17.192Z,94.40
2018-12-16T11:21:43.483Z,94.48
2018-12-16T11:24:09.643Z,94.11
2018-12-16T11:26:35.820Z,94.24
2018-12-16T11:29:01.976Z,94.22
2018-12-16T11:31:28.139Z,94.19
2018-12-16T11:33:54.280Z,94.23
2018-12-16T11:36:20.421Z,93.89
2018-12-16T11:38:46.554Z,94.27
2018-12-16T11:41:12.675Z,93.96
2018-12-16T11:43:38.813Z,94.03
2018-12-16T11:46:04.967Z,94.26
2018-12-16T11:48:31.079Z,94.62
2018-12-16T11:50:57.224Z,94.51
2018-12-16T11:53:23.352Z,94.28
2018-12-16T11:55:49.528Z,93.92
2018-12-16T11:58:15.676Z,94.46
2018-12-16T12:00:41.804Z,94.32
2018-12-16T12:03:07.984Z,94.16
2018-12-16T12:05:34.111Z,93.93
2018-12-16T12:08:00.251Z,93.42
2018-12-16T12:10:26.403Z,93.34
2018-12-16T12:12:52.540Z,93.01
2018-12-16T12:15:18.660Z,92.81
2018-12-16T12:17:44.836Z,92.90
2018-12-16T12:20:10.993Z,92.72
2018-12-16T12:22:37.247Z,92.04
2018-12-16T12:25:03.628Z,92.66
2018-12-16T12:27:29.780Z,92.78
2018-12-16T12:29:55.951Z,92.78
2018-12-16T12:32:22.087Z,93.43
2018-12-16T12:34:48.245Z,92.88
2018-12-16T12:37:14.407Z,92.82
2018-12-16T12:39:40.536Z,93.45
2018-12-16T12:42:06.691Z,93.18
2018-12-16T12:44:32.823Z,93.46
2018-12-16T12:46:58.970Z,93.17
2018-12-16T12:49:25.179Z,93.33
2018-12-16T12:51:51.398Z,93.18
2018-12-16T12:54:17.608Z,93.14
2018-12-16T12:56:43.739Z,93.27
2018-12-16T12:59:09.908Z,93.87
2018-12-16T13:01:36.048Z,93.75
2018-12-16T13:04:02.206Z,93.67
2018-12-16T13:06:28.344Z,93.40
2018-12-16T13:08:54.500Z,93.34
2018-12-16T13:11:20.625Z,92.89
2018-12-16T13:13:46.778Z,92.96
2018-12-16T13:16:12.939Z,93.05
2018-12-16T13:18:39.089Z,93.43
2018-12-16T13:21:05.220Z,93.83
2018-12-16T13:23:31.359Z,93.70
2018-12-16T13:26:01.533Z,93.27
2018-12-16T13:28:27.659Z,93.05
2018-12-16T13:30:53.859Z,93.13
2018-12-16T13:33:20.012Z,93.42
2018-12-16T13:35:46.185Z,93.37
2018-12-16T13:38:12.476Z,93.22
2018-12-16T13:40:38.607Z,93.44
2018-12-16T13:43:04.869Z,93.57
2018-12-16T13:45:30.997Z,93.46
2018-12-16T13:47:57.123Z,93.31
2018-12-16T13:50:23.320Z,93.28
2018-12-16T13:52:49.455Z,93.52
2018-12-16T13:55:15.618Z,93.91
2018-12-16T13:57:42.195Z,93.22
2018-12-16T14:00:08.439Z,93.22
2018-12-16T14:02:34.583Z,93.28
2018-12-16T14:05:00.749Z,93.28
2018-12-16T14:07:26.891Z,93.52
2018-12-16T14:09:53.041Z,92.93
2018-12-16T14:12:19.219Z,92.76
2018-12-16T14:14:45.376Z,92.77
2018-12-16T14:17:11.798Z,93.00
2018-12-16T14:19:37.927Z,92.85
2018-12-16T14:22:04.128Z,92.85
2018-12-16T14:24:30.268Z,92.65
2018-12-16T14:26:56.435Z,92.81
2018-12-16T14:29:22.632Z,93.74
2018-12-16T14:31:48.794Z,94.04
2018-12-16T14:34:14.931Z,93.35
2018-12-16T14:36:41.056Z,93.46
2018-12-16T14:39:07.212Z,94.22
2018-12-16T14:41:33.353Z,94.03
2018-12-16T14:43:59.511Z,93.86
2018-12-16T14:46:25.692Z,94.08
2018-12-16T14:48:51.836Z,93.56
2018-12-16T14:51:17.989Z,94.08
2018-12-16T14:53:44.114Z,93.95
2018-12-16T14:56:10.251Z,94.02
2018-12-16T14:58:36.395Z,93.89
2018-12-16T15:01:02.579Z,94.00
2018-12-16T15:03:28.721Z,94.05
2018-12-16T15:05:54.868Z,93.78
2018-12-16T15:08:21.027Z,93.54
2018-12-16T15:10:47.204Z,93.27
2018-12-16T15:13:13.432Z,93.53
2018-12-16T15:15:39.675Z,94.00
2018-12-16T15:18:05.854Z,93.95
2018-12-16T15:20:32.144Z,94.32
2018-12-16T15:22:58.288Z,93.65
2018-12-16T15:25:24.443Z,93.88
2018-12-16T15:27:50.596Z,93.70
2018-12-16T15:30:16.723Z,93.60
2018-12-16T15:32:42.866Z,93.79
2018-12-16T15:35:09.013Z,93.76
2018-12-16T15:37:35.212Z,94.36
2018-12-16T15:40:01.406Z,93.84
2018-12-16T15:42:27.635Z,94.17
2018-12-16T15:44:53.769Z,94.04
2018-12-16T15:47:19.900Z,94.49
2018-12-16T15:49:46.043Z,94.39
2018-12-16T15:52:12.200Z,94.15
2018-12-16T15:54:38.328Z,94.22
2018-12-16T15:57:04.495Z,93.59
2018-12-16T15:59:30.658Z,93.91
2018-12-16T16:01:56.835Z,94.05
2018-12-16T16:04:23.067Z,94.09
2018-12-16T16:06:49.360Z,94.37
2018-12-16T16:09:15.531Z,94.38
2018-12-16T16:11:41.692Z,93.92
2018-12-16T16:14:07.926Z,94.22
2018-12-16T16:16:34.113Z,94.60
2018-12-16T16:19:00.251Z,94.54
2018-12-16T16:21:26.398Z,94.47
2018-12-16T16:23:52.551Z,94.78
2018-12-16T16:26:18.683Z,94.50
2018-12-16T16:28:44.856Z,94.73
2018-12-16T16:31:10.971Z,94.65
2018-12-16T16:33:37.120Z,94.92
2018-12-16T16:36:03.287Z,95.50
2018-12-16T16:38:29.445Z,95.88
2018-12-16T16:40:55.634Z,96.08
2018-12-16T16:43:21.789Z,95.81
2018-12-16T16:45:48.545Z,96.43
2018-12-16T16:48:14.682Z,97.50
2018-12-16T16:50:40.844Z,97.33
2018-12-16T16:53:06.995Z,97.53
2018-12-16T16:55:33.163Z,97.30
2018-12-16T16:57:59.294Z,97.07
2018-12-16T17:00:25.440Z,97.13
2018-12-16T17:02:51.727Z,97.37
2018-12-16T17:05:18.019Z,97.92
2018-12-16T17:07:44.215Z,98.17
2018-12-16T17:10:10.355Z,98.45
2018-12-16T17:12:36.508Z,98.57
2018-12-16T17:15:03.854Z,99.18
2018-12-16T17:17:29.976Z,99.66
2018-12-16T17:19:56.099Z,99.64
2018-12-16T17:22:22.300Z,99.09
2018-12-16T17:24:48.430Z,98.06
2018-12-16T17:27:14.562Z,97.83
2018-12-16T17:29:40.711Z,98.08
2018-12-16T17:32:06.910Z,98.12
2018-12-16T17:34:33.055Z,98.95
2018-12-16T17:36:59.203Z,99.43
2018-12-16T17:39:25.336Z,99.23
2018-12-16T17:41:51.456Z,99.50
2018-12-16T17:44:17.591Z,99.80
2018-12-16T17:46:43.707Z,99.92
2018-12-16T17:49:09.860Z,99.75
2018-12-16T17:51:35.995Z,100.00
2018-12-16T17:54:02.139Z,100.00
2018-12-16T17:56:28.265Z,100.00
2018-12-16T17:58:54.415Z,100.00
2018-12-16T18:01:20.559Z,100.00
2018-12-16T18:03:46.687Z,100.00
2018-12-16T18:06:12.817Z,100.00
2018-12-16T18:08:38.936Z,100.00
2018-12-16T18:11:05.091Z,100.00
2018-12-16T18:13:31.216Z,100.00
2018-12-16T18:15:57.408Z,100.00
2018-12-16T18:18:23.534Z,99.50
2018-12-16T18:20:49.701Z,99.34
2018-12-16T18:23:15.838Z,98.79
2018-12-16T18:25:41.959Z,98.53
2018-12-16T18:28:08.091Z,97.82
2018-12-16T18:30:34.226Z,98.06
2018-12-16T18:33:00.692Z,97.53
2018-12-16T18:35:26.818Z,97.17
2018-12-16T18:37:53.186Z,97.15
2018-12-16T18:40:19.323Z,97.60
2018-12-16T18:42:45.446Z,97.56
2018-12-16T18:45:11.575Z,96.62
2018-12-16T18:47:37.743Z,97.03
2018-12-16T18:50:06.340Z,97.01
2018-12-16T18:52:32.490Z,96.58
2018-12-16T18:54:58.603Z,96.75
2018-12-16T18:57:24.751Z,96.63
2018-12-16T18:59:50.912Z,96.51
2018-12-16T19:02:17.048Z,96.21
2018-12-16T19:04:43.159Z,96.72
2018-12-16T19:07:09.306Z,96.58
2018-12-16T19:09:35.418Z,96.72
2018-12-16T19:12:01.601Z,97.02
2018-12-16T19:14:28.303Z,97.00
2018-12-16T19:16:54.463Z,97.06
2018-12-16T19:19:20.848Z,96.75
2018-12-16T19:21:47.016Z,96.53
2018-12-16T19:24:13.174Z,96.50
2018-12-16T19:26:39.316Z,96.72
2018-12-16T19:29:05.445Z,96.87
2018-12-16T19:31:31.636Z,96.47
2018-12-16T19:34:17.058Z,96.47
2018-12-16T19:36:43.308Z,96.49
2018-12-16T19:39:09.428Z,96.66
2018-12-16T19:41:35.549Z,96.19
2018-12-16T19:44:01.735Z,96.26
2018-12-16T19:46:27.895Z,96.29
2018-12-16T19:48:54.020Z,96.82
2018-12-16T19:51:20.306Z,96.16
2018-12-16T19:53:46.451Z,96.74
2018-12-16T19:56:12.589Z,96.59
2018-12-16T19:58:39.083Z,96.63
2018-12-16T20:01:05.239Z,96.61
2018-12-16T20:03:31.832Z,96.23
2018-12-16T20:06:04.146Z,96.40
2018-12-16T20:08:30.318Z,96.44
2018-12-16T20:10:56.455Z,96.60
2018-12-16T20:13:22.612Z,96.42
2018-12-16T20:15:48.749Z,95.97
2018-12-16T20:18:14.925Z,96.26
2018-12-16T20:20:41.123Z,96.27
2018-12-16T20:23:07.266Z,96.19
2018-12-16T20:25:33.415Z,95.92
2018-12-16T20:27:59.561Z,95.64
2018-12-16T20:30:25.728Z,95.90
2018-12-16T20:32:52.024Z,95.56
2018-12-16T20:35:18.508Z,95.77
2018-12-16T20:37:45.128Z,95.31
2018-12-16T20:40:11.275Z,95.41
2018-12-16T20:42:37.439Z,94.88
2018-12-16T20:45:05.533Z,95.36
2018-12-16T20:47:31.668Z,95.06
2018-12-16T20:49:57.814Z,95.38
2018-12-16T20:52:23.979Z,94.60
2018-12-16T20:54:50.120Z,94.93
2018-12-16T20:57:18.949Z,94.76
2018-12-16T20:59:44.442Z,94.92
2018-12-16T21:02:10.599Z,94.70
2018-12-16T21:04:36.759Z,95.03
2018-12-16T21:07:03.031Z,94.80
2018-12-16T21:09:29.177Z,94.77
2018-12-16T21:12:00.617Z,94.15
2018-12-16T21:17:36.887Z,94.40
2018-12-16T21:20:04.400Z,94.75
2018-12-16T21:22:30.554Z,94.42
2018-12-16T21:24:56.758Z,94.17
2018-12-16T21:27:26.153Z,94.26
2018-12-16T21:29:51.299Z,94.53
2018-12-16T21:32:17.461Z,94.53
2018-12-16T21:34:43.578Z,94.29
2018-12-16T21:37:09.847Z,93.99
2018-12-16T21:39:36.028Z,94.54
2018-12-16T21:42:02.219Z,94.49
2018-12-16T21:44:28.363Z,94.33
2018-12-16T21:46:54.498Z,93.96
2018-12-16T21:49:20.638Z,93.66
2018-12-16T21:51:46.791Z,93.79
2018-12-16T21:54:12.941Z,93.19
2018-12-16T21:56:39.067Z,93.90
2018-12-16T21:59:05.177Z,93.36
2018-12-16T22:01:31.323Z,93.44
2018-12-16T22:03:57.471Z,93.75
2018-12-16T22:06:23.635Z,93.18
2018-12-16T22:08:49.788Z,93.28
2018-12-16T22:11:15.955Z,93.45
2018-12-16T22:13:42.068Z,92.71
2018-12-16T22:16:08.225Z,91.79
2018-12-16T22:18:34.383Z,92.18
2018-12-16T22:21:00.530Z,92.72
2018-12-16T22:23:26.647Z,92.47
2018-12-16T22:25:52.832Z,92.77
2018-12-16T22:28:18.982Z,91.72
2018-12-16T22:30:45.099Z,91.81
2018-12-16T22:33:11.240Z,91.36
2018-12-16T22:35:37.493Z,91.52
2018-12-16T22:38:03.629Z,91.54
2018-12-16T22:40:29.888Z,91.58
2018-12-16T22:42:56.067Z,92.15
2018-12-16T22:45:22.275Z,92.18
2018-12-16T22:47:48.414Z,92.40
2018-12-16T22:50:14.562Z,92.46
2018-12-16T22:52:40.721Z,92.42
2018-12-16T22:55:06.899Z,91.68
2018-12-16T22:57:33.041Z,91.31
2018-12-16T22:59:59.159Z,92.15
2018-12-16T23:02:25.303Z,91.91
2018-12-16T23:04:51.442Z,91.87
2018-12-16T23:07:17.595Z,92.42
2018-12-16T23:09:43.728Z,92.23
2018-12-16T23:12:09.886Z,92.72
2018-12-16T23:14:36.014Z,92.30
2018-12-16T23:17:02.260Z,92.34
2018-12-16T23:19:28.425Z,92.30
2018-12-16T23:21:54.555Z,92.99
2018-12-16T23:24:21.239Z,92.24
2018-12-16T23:26:47.415Z,91.40
2018-12-16T23:29:13.570Z,91.03
2018-12-16T23:31:39.744Z,91.49
2018-12-16T23:34:05.883Z,91.05
2018-12-16T23:36:32.016Z,91.65
2018-12-16T23:38:58.166Z,91.49
2018-12-16T23:41:24.506Z,91.51
2018-12-16T23:43:50.703Z,91.67
2018-12-16T23:46:16.851Z,91.12
2018-12-16T23:48:42.967Z,91.55
2018-12-16T23:51:09.082Z,91.25
2018-12-16T23:53:35.283Z,91.65
2018-12-16T23:56:01.412Z,91.99
2018-12-16T23:58:27.556Z,91.83
